sensor_id;sensor_type;location;lat;lon;timestamp;temperature;humidity
18597;DHT22;9428;50.950;6.912;2023-07-29T00:01:17;20.10;99.90
18597;DHT22;9428;50.950;6.912;2023-07-29T00:04:04;20.10;99.90
18597;DHT22;9428;50.950;6.912;2023-07-29T00:06:51;19.90;99.90
18597;DHT22;9428;50.950;6.912;2023-07-29T00:09:40;20.00;99.90
18597;DHT22;9428;50.950;6.912;2023-07-29T00:12:27;20.00;99.90
18597;DHT22;9428;50.950;6.912;2023-07-29T00:15:15;20.00;99.90
18597;DHT22;9428;50.950;6.912;2023-07-29T00:18:02;20.00;99.90
18597;DHT22;9428;50.950;6.912;2023-07-29T00:20:49;19.90;99.90
18597;DHT22;9428;50.950;6.912;2023-07-29T00:23:37;20.00;99.90
18597;DHT22;9428;50.950;6.912;2023-07-29T00:26:25;19.90;99.90
18597;DHT22;9428;50.950;6.912;2023-07-29T00:29:14;19.80;99.90
18597;DHT22;9428;50.950;6.912;2023-07-29T00:32:02;19.80;99.90
18597;DHT22;9428;50.950;6.912;2023-07-29T00:34:50;19.90;99.90
18597;DHT22;9428;50.950;6.912;2023-07-29T00:37:37;19.80;99.90
18597;DHT22;9428;50.950;6.912;2023-07-29T00:40:24;19.70;99.90
18597;DHT22;9428;50.950;6.912;2023-07-29T00:43:16;19.70;99.90
18597;DHT22;9428;50.950;6.912;2023-07-29T00:46:03;20.80;99.90
18597;DHT22;9428;50.950;6.912;2023-07-29T00:48:51;19.80;99.90
18597;DHT22;9428;50.950;6.912;2023-07-29T00:51:38;19.70;99.90
18597;DHT22;9428;50.950;6.912;2023-07-29T00:54:25;19.70;99.90
18597;DHT22;9428;50.950;6.912;2023-07-29T00:57:13;19.70;99.90
18597;DHT22;9428;50.950;6.912;2023-07-29T01:00:04;19.70;99.90
18597;DHT22;9428;50.950;6.912;2023-07-29T01:02:52;19.70;99.90
18597;DHT22;9428;50.950;6.912;2023-07-29T01:05:48;19.70;99.90
18597;DHT22;9428;50.950;6.912;2023-07-29T01:08:43;19.70;99.90
18597;DHT22;9428;50.950;6.912;2023-07-29T01:11:46;19.70;99.90
18597;DHT22;9428;50.950;6.912;2023-07-29T01:14:41;19.70;99.90
18597;DHT22;9428;50.950;6.912;2023-07-29T01:17:33;19.80;99.90
18597;DHT22;9428;50.950;6.912;2023-07-29T01:20:21;19.70;99.90
18597;DHT22;9428;50.950;6.912;2023-07-29T01:23:11;19.70;99.90
18597;DHT22;9428;50.950;6.912;2023-07-29T01:25:59;19.60;99.90
18597;DHT22;9428;50.950;6.912;2023-07-29T01:28:47;19.70;99.90
18597;DHT22;9428;50.950;6.912;2023-07-29T01:31:40;19.80;99.90
18597;DHT22;9428;50.950;6.912;2023-07-29T01:34:35;19.70;99.90
18597;DHT22;9428;50.950;6.912;2023-07-29T01:37:26;19.70;99.90
18597;DHT22;9428;50.950;6.912;2023-07-29T01:40:14;19.70;99.90
18597;DHT22;9428;50.950;6.912;2023-07-29T01:43:03;19.60;99.90
18597;DHT22;9428;50.950;6.912;2023-07-29T01:45:50;19.60;99.90
18597;DHT22;9428;50.950;6.912;2023-07-29T01:48:37;19.60;99.90
18597;DHT22;9428;50.950;6.912;2023-07-29T01:51:25;19.60;99.90
18597;DHT22;9428;50.950;6.912;2023-07-29T01:54:12;19.60;99.90
18597;DHT22;9428;50.950;6.912;2023-07-29T01:56:59;19.60;99.90
18597;DHT22;9428;50.950;6.912;2023-07-29T01:59:48;19.60;99.90
18597;DHT22;9428;50.950;6.912;2023-07-29T02:02:35;19.60;99.90
18597;DHT22;9428;50.950;6.912;2023-07-29T02:05:22;19.50;99.90
18597;DHT22;9428;50.950;6.912;2023-07-29T02:08:10;19.40;99.90
18597;DHT22;9428;50.950;6.912;2023-07-29T02:10:57;19.40;99.90
18597;DHT22;9428;50.950;6.912;2023-07-29T02:13:44;19.30;99.90
18597;DHT22;9428;50.950;6.912;2023-07-29T02:16:33;19.30;99.90
18597;DHT22;9428;50.950;6.912;2023-07-29T02:19:20;19.30;99.90
18597;DHT22;9428;50.950;6.912;2023-07-29T02:22:07;19.40;99.90
18597;DHT22;9428;50.950;6.912;2023-07-29T02:24:55;19.40;99.90
18597;DHT22;9428;50.950;6.912;2023-07-29T02:27:42;19.40;99.90
18597;DHT22;9428;50.950;6.912;2023-07-29T02:30:29;19.40;99.90
18597;DHT22;9428;50.950;6.912;2023-07-29T02:33:18;19.50;99.90
18597;DHT22;9428;50.950;6.912;2023-07-29T02:36:05;19.50;99.90
18597;DHT22;9428;50.950;6.912;2023-07-29T02:38:52;19.50;99.90
18597;DHT22;9428;50.950;6.912;2023-07-29T02:41:39;19.50;99.90
18597;DHT22;9428;50.950;6.912;2023-07-29T02:44:27;18.80;99.90
18597;DHT22;9428;50.950;6.912;2023-07-29T02:47:14;19.40;99.90
18597;DHT22;9428;50.950;6.912;2023-07-29T02:50:03;19.40;99.90
18597;DHT22;9428;50.950;6.912;2023-07-29T02:52:50;19.50;99.90
18597;DHT22;9428;50.950;6.912;2023-07-29T02:55:39;19.40;99.90
18597;DHT22;9428;50.950;6.912;2023-07-29T02:58:26;19.50;99.90
18597;DHT22;9428;50.950;6.912;2023-07-29T03:01:14;19.50;99.90
18597;DHT22;9428;50.950;6.912;2023-07-29T03:04:01;19.50;99.90
18597;DHT22;9428;50.950;6.912;2023-07-29T03:06:50;19.40;99.90
18597;DHT22;9428;50.950;6.912;2023-07-29T03:09:37;19.40;99.90
18597;DHT22;9428;50.950;6.912;2023-07-29T03:12:25;19.40;99.90
18597;DHT22;9428;50.950;6.912;2023-07-29T03:15:12;19.40;99.90
18597;DHT22;9428;50.950;6.912;2023-07-29T03:17:59;19.40;99.90
18597;DHT22;9428;50.950;6.912;2023-07-29T03:20:49;19.40;99.90
18597;DHT22;9428;50.950;6.912;2023-07-29T03:23:38;19.40;99.90
18597;DHT22;9428;50.950;6.912;2023-07-29T03:26:25;19.40;99.90
18597;DHT22;9428;50.950;6.912;2023-07-29T03:29:12;19.40;99.90
18597;DHT22;9428;50.950;6.912;2023-07-29T03:31:59;19.30;99.90
18597;DHT22;9428;50.950;6.912;2023-07-29T03:34:46;19.30;99.90
18597;DHT22;9428;50.950;6.912;2023-07-29T03:37:33;19.30;99.90
18597;DHT22;9428;50.950;6.912;2023-07-29T03:40:22;19.40;99.90
18597;DHT22;9428;50.950;6.912;2023-07-29T03:43:09;19.40;99.90
18597;DHT22;9428;50.950;6.912;2023-07-29T03:45:57;19.40;99.90
18597;DHT22;9428;50.950;6.912;2023-07-29T03:48:44;19.40;99.90
18597;DHT22;9428;50.950;6.912;2023-07-29T03:51:31;19.40;99.90
18597;DHT22;9428;50.950;6.912;2023-07-29T03:54:18;19.40;99.90
18597;DHT22;9428;50.950;6.912;2023-07-29T03:57:07;19.30;99.90
18597;DHT22;9428;50.950;6.912;2023-07-29T03:59:54;19.30;99.90
18597;DHT22;9428;50.950;6.912;2023-07-29T04:02:42;19.30;99.90
18597;DHT22;9428;50.950;6.912;2023-07-29T04:05:31;19.20;99.90
18597;DHT22;9428;50.950;6.912;2023-07-29T04:08:19;19.30;99.90
18597;DHT22;9428;50.950;6.912;2023-07-29T04:11:06;19.20;99.90
18597;DHT22;9428;50.950;6.912;2023-07-29T04:13:54;19.10;99.90
18597;DHT22;9428;50.950;6.912;2023-07-29T04:16:42;19.20;99.90
18597;DHT22;9428;50.950;6.912;2023-07-29T04:19:29;19.20;99.90
18597;DHT22;9428;50.950;6.912;2023-07-29T04:22:16;19.10;99.90
18597;DHT22;9428;50.950;6.912;2023-07-29T04:25:04;19.20;99.90
18597;DHT22;9428;50.950;6.912;2023-07-29T04:27:52;19.20;99.90
18597;DHT22;9428;50.950;6.912;2023-07-29T04:30:41;19.10;99.90
18597;DHT22;9428;50.950;6.912;2023-07-29T04:33:29;19.10;99.90
18597;DHT22;9428;50.950;6.912;2023-07-29T04:36:17;19.10;99.90
18597;DHT22;9428;50.950;6.912;2023-07-29T04:39:04;19.10;99.90
18597;DHT22;9428;50.950;6.912;2023-07-29T04:41:51;19.10;99.90
18597;DHT22;9428;50.950;6.912;2023-07-29T04:44:38;19.20;99.90
18597;DHT22;9428;50.950;6.912;2023-07-29T04:47:29;19.10;99.90
18597;DHT22;9428;50.950;6.912;2023-07-29T04:50:16;19.10;99.90
18597;DHT22;9428;50.950;6.912;2023-07-29T04:53:03;19.10;99.90
18597;DHT22;9428;50.950;6.912;2023-07-29T04:55:51;19.10;99.90
18597;DHT22;9428;50.950;6.912;2023-07-29T04:58:38;19.20;99.90
18597;DHT22;9428;50.950;6.912;2023-07-29T05:01:25;19.20;99.90
18597;DHT22;9428;50.950;6.912;2023-07-29T05:04:14;19.10;99.90
18597;DHT22;9428;50.950;6.912;2023-07-29T05:07:01;19.20;99.90
18597;DHT22;9428;50.950;6.912;2023-07-29T05:09:48;19.20;99.90
18597;DHT22;9428;50.950;6.912;2023-07-29T05:12:36;19.20;99.90
18597;DHT22;9428;50.950;6.912;2023-07-29T05:15:23;19.20;99.90
18597;DHT22;9428;50.950;6.912;2023-07-29T05:18:10;19.30;99.90
18597;DHT22;9428;50.950;6.912;2023-07-29T05:20:59;19.30;99.90
18597;DHT22;9428;50.950;6.912;2023-07-29T05:23:46;19.40;99.90
18597;DHT22;9428;50.950;6.912;2023-07-29T05:26:34;19.30;99.90
18597;DHT22;9428;50.950;6.912;2023-07-29T05:29:21;19.30;99.90
18597;DHT22;9428;50.950;6.912;2023-07-29T05:32:08;19.40;99.90
18597;DHT22;9428;50.950;6.912;2023-07-29T05:34:56;19.40;99.90
18597;DHT22;9428;50.950;6.912;2023-07-29T05:37:44;19.40;99.90
18597;DHT22;9428;50.950;6.912;2023-07-29T05:40:31;19.40;99.90
18597;DHT22;9428;50.950;6.912;2023-07-29T05:43:19;19.30;99.90
18597;DHT22;9428;50.950;6.912;2023-07-29T05:46:06;19.30;99.90
18597;DHT22;9428;50.950;6.912;2023-07-29T05:48:53;19.30;99.90
18597;DHT22;9428;50.950;6.912;2023-07-29T05:51:40;19.40;99.90
18597;DHT22;9428;50.950;6.912;2023-07-29T05:54:29;19.30;99.90
18597;DHT22;9428;50.950;6.912;2023-07-29T05:57:16;19.40;99.90
18597;DHT22;9428;50.950;6.912;2023-07-29T06:00:04;19.50;99.90
18597;DHT22;9428;50.950;6.912;2023-07-29T06:02:52;19.60;99.90
18597;DHT22;9428;50.950;6.912;2023-07-29T06:05:39;19.50;99.90
18597;DHT22;9428;50.950;6.912;2023-07-29T06:08:26;19.60;99.90
18597;DHT22;9428;50.950;6.912;2023-07-29T06:11:16;19.60;99.90
18597;DHT22;9428;50.950;6.912;2023-07-29T06:14:03;19.60;99.90
18597;DHT22;9428;50.950;6.912;2023-07-29T06:16:50;19.40;99.90
18597;DHT22;9428;50.950;6.912;2023-07-29T06:19:38;19.40;99.90
18597;DHT22;9428;50.950;6.912;2023-07-29T06:22:25;19.50;99.90
18597;DHT22;9428;50.950;6.912;2023-07-29T06:25:12;19.40;99.90
18597;DHT22;9428;50.950;6.912;2023-07-29T06:28:01;19.30;99.90
18597;DHT22;9428;50.950;6.912;2023-07-29T06:30:48;19.30;99.90
18597;DHT22;9428;50.950;6.912;2023-07-29T06:33:35;19.30;99.90
18597;DHT22;9428;50.950;6.912;2023-07-29T06:36:22;19.40;99.90
18597;DHT22;9428;50.950;6.912;2023-07-29T06:39:10;19.50;99.90
18597;DHT22;9428;50.950;6.912;2023-07-29T06:41:57;19.50;99.90
18597;DHT22;9428;50.950;6.912;2023-07-29T06:44:46;19.50;99.90
18597;DHT22;9428;50.950;6.912;2023-07-29T06:47:33;19.50;99.90
18597;DHT22;9428;50.950;6.912;2023-07-29T06:50:20;19.40;99.90
18597;DHT22;9428;50.950;6.912;2023-07-29T06:53:08;19.40;99.90
18597;DHT22;9428;50.950;6.912;2023-07-29T06:55:55;19.40;99.90
18597;DHT22;9428;50.950;6.912;2023-07-29T06:58:43;19.50;99.90
18597;DHT22;9428;50.950;6.912;2023-07-29T07:01:31;19.70;99.90
18597;DHT22;9428;50.950;6.912;2023-07-29T07:04:18;19.80;99.90
18597;DHT22;9428;50.950;6.912;2023-07-29T07:07:06;19.90;99.90
18597;DHT22;9428;50.950;6.912;2023-07-29T07:09:54;20.00;99.90
18597;DHT22;9428;50.950;6.912;2023-07-29T07:12:41;20.00;99.90
18597;DHT22;9428;50.950;6.912;2023-07-29T07:15:28;20.10;99.90
18597;DHT22;9428;50.950;6.912;2023-07-29T07:18:17;20.00;99.90
18597;DHT22;9428;50.950;6.912;2023-07-29T07:21:04;20.10;99.90
18597;DHT22;9428;50.950;6.912;2023-07-29T07:23:51;20.10;99.90
18597;DHT22;9428;50.950;6.912;2023-07-29T07:26:38;20.00;99.90
18597;DHT22;9428;50.950;6.912;2023-07-29T07:29:26;20.00;99.90
18597;DHT22;9428;50.950;6.912;2023-07-29T07:32:13;19.90;99.90
18597;DHT22;9428;50.950;6.912;2023-07-29T07:35:01;19.90;99.90
18597;DHT22;9428;50.950;6.912;2023-07-29T07:37:49;20.00;99.90
18597;DHT22;9428;50.950;6.912;2023-07-29T07:40:37;20.30;99.90
18597;DHT22;9428;50.950;6.912;2023-07-29T07:43:25;20.20;99.90
18597;DHT22;9428;50.950;6.912;2023-07-29T07:46:12;20.10;99.90
18597;DHT22;9428;50.950;6.912;2023-07-29T07:48:59;20.00;99.90
18597;DHT22;9428;50.950;6.912;2023-07-29T07:51:48;20.00;99.90
18597;DHT22;9428;50.950;6.912;2023-07-29T07:54:35;19.90;99.90
18597;DHT22;9428;50.950;6.912;2023-07-29T07:57:22;19.90;99.90
18597;DHT22;9428;50.950;6.912;2023-07-29T08:00:10;20.10;99.90
18597;DHT22;9428;50.950;6.912;2023-07-29T08:02:57;20.20;99.90
18597;DHT22;9428;50.950;6.912;2023-07-29T08:05:45;20.30;99.90
18597;DHT22;9428;50.950;6.912;2023-07-29T08:08:33;20.30;99.90
18597;DHT22;9428;50.950;6.912;2023-07-29T08:11:21;20.20;99.90
18597;DHT22;9428;50.950;6.912;2023-07-29T08:14:08;20.10;99.90
18597;DHT22;9428;50.950;6.912;2023-07-29T08:16:55;20.30;99.90
18597;DHT22;9428;50.950;6.912;2023-07-29T08:19:42;20.50;99.90
18597;DHT22;9428;50.950;6.912;2023-07-29T08:22:29;20.70;99.90
18597;DHT22;9428;50.950;6.912;2023-07-29T08:25:18;20.80;99.90
18597;DHT22;9428;50.950;6.912;2023-07-29T08:28:05;20.60;99.90
18597;DHT22;9428;50.950;6.912;2023-07-29T08:30:53;20.50;99.90
18597;DHT22;9428;50.950;6.912;2023-07-29T08:33:40;20.90;99.90
18597;DHT22;9428;50.950;6.912;2023-07-29T08:36:27;20.80;99.90
18597;DHT22;9428;50.950;6.912;2023-07-29T08:39:15;20.60;99.90
18597;DHT22;9428;50.950;6.912;2023-07-29T08:42:04;20.60;99.90
18597;DHT22;9428;50.950;6.912;2023-07-29T08:44:56;20.40;99.90
18597;DHT22;9428;50.950;6.912;2023-07-29T08:47:45;20.40;99.90
18597;DHT22;9428;50.950;6.912;2023-07-29T08:50:33;20.30;99.90
18597;DHT22;9428;50.950;6.912;2023-07-29T08:53:22;20.10;99.90
18597;DHT22;9428;50.950;6.912;2023-07-29T08:56:09;20.10;99.90
18597;DHT22;9428;50.950;6.912;2023-07-29T08:58:58;20.40;99.90
18597;DHT22;9428;50.950;6.912;2023-07-29T09:01:48;20.70;99.90
18597;DHT22;9428;50.950;6.912;2023-07-29T09:04:36;20.60;99.90
18597;DHT22;9428;50.950;6.912;2023-07-29T09:07:23;20.50;99.90
18597;DHT22;9428;50.950;6.912;2023-07-29T09:10:13;20.40;99.90
18597;DHT22;9428;50.950;6.912;2023-07-29T09:13:01;20.40;99.90
18597;DHT22;9428;50.950;6.912;2023-07-29T09:15:54;20.40;99.90
18597;DHT22;9428;50.950;6.912;2023-07-29T09:18:42;20.40;99.90
18597;DHT22;9428;50.950;6.912;2023-07-29T09:21:29;20.30;99.90
18597;DHT22;9428;50.950;6.912;2023-07-29T09:24:17;20.40;99.90
18597;DHT22;9428;50.950;6.912;2023-07-29T09:27:05;20.50;99.90
18597;DHT22;9428;50.950;6.912;2023-07-29T09:29:53;20.40;99.90
18597;DHT22;9428;50.950;6.912;2023-07-29T09:32:42;20.40;99.90
18597;DHT22;9428;50.950;6.912;2023-07-29T09:35:32;20.60;99.90
18597;DHT22;9428;50.950;6.912;2023-07-29T09:38:26;20.60;99.90
18597;DHT22;9428;50.950;6.912;2023-07-29T09:41:15;20.60;99.90
18597;DHT22;9428;50.950;6.912;2023-07-29T09:44:04;20.40;99.90
18597;DHT22;9428;50.950;6.912;2023-07-29T09:46:52;20.60;99.90
18597;DHT22;9428;50.950;6.912;2023-07-29T09:49:40;20.60;99.90
18597;DHT22;9428;50.950;6.912;2023-07-29T09:52:28;20.80;99.90
18597;DHT22;9428;50.950;6.912;2023-07-29T09:55:18;20.90;99.90
18597;DHT22;9428;50.950;6.912;2023-07-29T09:58:05;21.00;99.90
18597;DHT22;9428;50.950;6.912;2023-07-29T10:00:54;21.00;99.90
18597;DHT22;9428;50.950;6.912;2023-07-29T10:03:41;21.10;99.90
18597;DHT22;9428;50.950;6.912;2023-07-29T10:06:30;21.10;99.90
18597;DHT22;9428;50.950;6.912;2023-07-29T10:09:20;21.10;99.90
18597;DHT22;9428;50.950;6.912;2023-07-29T10:12:09;21.00;99.90
18597;DHT22;9428;50.950;6.912;2023-07-29T10:14:59;21.10;99.90
18597;DHT22;9428;50.950;6.912;2023-07-29T10:17:48;21.10;99.90
18597;DHT22;9428;50.950;6.912;2023-07-29T10:20:37;21.00;99.90
18597;DHT22;9428;50.950;6.912;2023-07-29T10:23:28;21.10;99.90
18597;DHT22;9428;50.950;6.912;2023-07-29T10:26:20;21.10;99.90
18597;DHT22;9428;50.950;6.912;2023-07-29T10:29:07;21.00;99.90
18597;DHT22;9428;50.950;6.912;2023-07-29T10:31:57;20.80;99.90
18597;DHT22;9428;50.950;6.912;2023-07-29T10:34:44;20.80;99.90
18597;DHT22;9428;50.950;6.912;2023-07-29T10:37:32;20.80;99.90
18597;DHT22;9428;50.950;6.912;2023-07-29T10:40:21;20.80;99.90
18597;DHT22;9428;50.950;6.912;2023-07-29T10:43:11;20.80;99.90
18597;DHT22;9428;50.950;6.912;2023-07-29T10:46:14;20.60;99.90
18597;DHT22;9428;50.950;6.912;2023-07-29T10:49:02;20.40;99.90
18597;DHT22;9428;50.950;6.912;2023-07-29T10:51:49;20.40;99.90
18597;DHT22;9428;50.950;6.912;2023-07-29T10:54:42;20.60;99.90
18597;DHT22;9428;50.950;6.912;2023-07-29T10:57:35;20.70;99.90
18597;DHT22;9428;50.950;6.912;2023-07-29T11:00:23;20.70;99.90
18597;DHT22;9428;50.950;6.912;2023-07-29T11:03:17;20.60;99.90
18597;DHT22;9428;50.950;6.912;2023-07-29T11:06:04;20.70;99.90
18597;DHT22;9428;50.950;6.912;2023-07-29T11:08:52;20.80;99.90
18597;DHT22;9428;50.950;6.912;2023-07-29T11:11:39;21.10;99.90
18597;DHT22;9428;50.950;6.912;2023-07-29T11:14:27;21.20;99.90
18597;DHT22;9428;50.950;6.912;2023-07-29T11:17:15;21.20;99.90
18597;DHT22;9428;50.950;6.912;2023-07-29T11:20:03;21.30;99.90
18597;DHT22;9428;50.950;6.912;2023-07-29T11:22:52;21.30;99.90
18597;DHT22;9428;50.950;6.912;2023-07-29T11:25:39;21.20;99.90
18597;DHT22;9428;50.950;6.912;2023-07-29T11:28:27;21.20;99.90
18597;DHT22;9428;50.950;6.912;2023-07-29T11:31:16;21.30;99.90
18597;DHT22;9428;50.950;6.912;2023-07-29T11:34:07;21.30;99.90
18597;DHT22;9428;50.950;6.912;2023-07-29T11:36:54;21.20;99.90
18597;DHT22;9428;50.950;6.912;2023-07-29T11:39:41;21.20;99.90
18597;DHT22;9428;50.950;6.912;2023-07-29T11:42:30;21.20;99.90
18597;DHT22;9428;50.950;6.912;2023-07-29T11:45:18;21.20;99.90
18597;DHT22;9428;50.950;6.912;2023-07-29T11:48:08;21.20;99.90
18597;DHT22;9428;50.950;6.912;2023-07-29T11:50:56;21.30;99.90
18597;DHT22;9428;50.950;6.912;2023-07-29T11:53:45;21.50;99.90
18597;DHT22;9428;50.950;6.912;2023-07-29T11:56:32;21.60;99.90
18597;DHT22;9428;50.950;6.912;2023-07-29T11:59:19;21.90;99.90
18597;DHT22;9428;50.950;6.912;2023-07-29T12:02:10;22.10;99.90
18597;DHT22;9428;50.950;6.912;2023-07-29T12:04:59;22.00;99.90
18597;DHT22;9428;50.950;6.912;2023-07-29T12:07:47;21.90;99.90
18597;DHT22;9428;50.950;6.912;2023-07-29T12:10:34;21.80;99.90
18597;DHT22;9428;50.950;6.912;2023-07-29T12:13:24;21.90;99.90
18597;DHT22;9428;50.950;6.912;2023-07-29T12:16:16;21.90;99.90
18597;DHT22;9428;50.950;6.912;2023-07-29T12:19:04;21.90;99.90
18597;DHT22;9428;50.950;6.912;2023-07-29T12:21:53;22.10;99.90
18597;DHT22;9428;50.950;6.912;2023-07-29T12:24:40;22.00;99.90
18597;DHT22;9428;50.950;6.912;2023-07-29T12:27:30;22.00;99.90
18597;DHT22;9428;50.950;6.912;2023-07-29T12:30:20;22.00;99.90
18597;DHT22;9428;50.950;6.912;2023-07-29T12:33:08;21.80;99.90
18597;DHT22;9428;50.950;6.912;2023-07-29T12:35:56;21.80;99.90
18597;DHT22;9428;50.950;6.912;2023-07-29T12:38:45;21.70;99.90
18597;DHT22;9428;50.950;6.912;2023-07-29T12:41:32;21.70;99.90
18597;DHT22;9428;50.950;6.912;2023-07-29T12:44:19;21.70;99.90
18597;DHT22;9428;50.950;6.912;2023-07-29T12:47:07;21.80;99.90
18597;DHT22;9428;50.950;6.912;2023-07-29T12:49:57;21.70;99.90
18597;DHT22;9428;50.950;6.912;2023-07-29T12:52:44;21.80;99.90
18597;DHT22;9428;50.950;6.912;2023-07-29T12:55:33;22.00;99.90
18597;DHT22;9428;50.950;6.912;2023-07-29T12:58:20;22.20;99.90
18597;DHT22;9428;50.950;6.912;2023-07-29T13:01:07;22.30;99.90
18597;DHT22;9428;50.950;6.912;2023-07-29T13:03:55;22.20;99.90
18597;DHT22;9428;50.950;6.912;2023-07-29T13:06:43;22.40;99.90
18597;DHT22;9428;50.950;6.912;2023-07-29T13:09:30;22.60;99.90
18597;DHT22;9428;50.950;6.912;2023-07-29T13:12:18;22.50;99.90
18597;DHT22;9428;50.950;6.912;2023-07-29T13:15:06;22.70;99.90
18597;DHT22;9428;50.950;6.912;2023-07-29T13:17:54;22.80;99.90
18597;DHT22;9428;50.950;6.912;2023-07-29T13:20:41;22.60;99.90
18597;DHT22;9428;50.950;6.912;2023-07-29T13:23:28;22.50;99.90
18597;DHT22;9428;50.950;6.912;2023-07-29T13:26:16;22.30;99.90
18597;DHT22;9428;50.950;6.912;2023-07-29T13:29:04;22.10;99.90
18597;DHT22;9428;50.950;6.912;2023-07-29T13:31:51;22.00;99.90
18597;DHT22;9428;50.950;6.912;2023-07-29T13:34:39;21.90;99.90
18597;DHT22;9428;50.950;6.912;2023-07-29T13:37:26;21.70;99.90
18597;DHT22;9428;50.950;6.912;2023-07-29T13:40:13;21.50;99.90
18597;DHT22;9428;50.950;6.912;2023-07-29T13:43:00;21.40;99.90
18597;DHT22;9428;50.950;6.912;2023-07-29T13:45:49;21.20;99.90
18597;DHT22;9428;50.950;6.912;2023-07-29T13:48:36;21.20;99.90
18597;DHT22;9428;50.950;6.912;2023-07-29T13:51:24;21.10;99.90
18597;DHT22;9428;50.950;6.912;2023-07-29T13:54:11;21.10;99.90
18597;DHT22;9428;50.950;6.912;2023-07-29T13:56:58;21.10;99.90
18597;DHT22;9428;50.950;6.912;2023-07-29T13:59:45;20.90;99.90
18597;DHT22;9428;50.950;6.912;2023-07-29T14:02:34;20.90;99.90
18597;DHT22;9428;50.950;6.912;2023-07-29T14:05:21;21.00;99.90
18597;DHT22;9428;50.950;6.912;2023-07-29T14:08:08;20.90;99.90
18597;DHT22;9428;50.950;6.912;2023-07-29T14:10:56;20.90;99.90
18597;DHT22;9428;50.950;6.912;2023-07-29T14:13:43;21.00;99.90
18597;DHT22;9428;50.950;6.912;2023-07-29T14:16:30;21.10;99.90
18597;DHT22;9428;50.950;6.912;2023-07-29T14:19:19;21.30;99.90
18597;DHT22;9428;50.950;6.912;2023-07-29T14:22:06;21.20;99.90
18597;DHT22;9428;50.950;6.912;2023-07-29T14:24:53;21.50;99.90
18597;DHT22;9428;50.950;6.912;2023-07-29T14:27:40;21.60;99.90
18597;DHT22;9428;50.950;6.912;2023-07-29T14:30:28;21.70;99.90
18597;DHT22;9428;50.950;6.912;2023-07-29T14:33:15;21.50;99.90
18597;DHT22;9428;50.950;6.912;2023-07-29T14:36:04;21.40;99.90
18597;DHT22;9428;50.950;6.912;2023-07-29T14:38:53;21.40;99.90
18597;DHT22;9428;50.950;6.912;2023-07-29T14:41:40;21.40;99.90
18597;DHT22;9428;50.950;6.912;2023-07-29T14:44:27;21.40;99.90
18597;DHT22;9428;50.950;6.912;2023-07-29T14:47:15;21.40;99.90
18597;DHT22;9428;50.950;6.912;2023-07-29T14:50:02;21.40;99.90
18597;DHT22;9428;50.950;6.912;2023-07-29T14:52:51;21.40;99.90
18597;DHT22;9428;50.950;6.912;2023-07-29T14:55:38;21.30;99.90
18597;DHT22;9428;50.950;6.912;2023-07-29T14:58:25;21.20;99.90
18597;DHT22;9428;50.950;6.912;2023-07-29T15:01:12;21.10;99.90
18597;DHT22;9428;50.950;6.912;2023-07-29T15:04:00;21.20;99.90
18597;DHT22;9428;50.950;6.912;2023-07-29T15:06:47;21.10;99.90
18597;DHT22;9428;50.950;6.912;2023-07-29T15:09:35;21.20;99.90
18597;DHT22;9428;50.950;6.912;2023-07-29T15:12:23;21.10;99.90
18597;DHT22;9428;50.950;6.912;2023-07-29T15:15:11;21.10;99.90
18597;DHT22;9428;50.950;6.912;2023-07-29T15:17:58;21.00;99.90
18597;DHT22;9428;50.950;6.912;2023-07-29T15:20:46;21.10;99.90
18597;DHT22;9428;50.950;6.912;2023-07-29T15:23:33;21.30;99.90
18597;DHT22;9428;50.950;6.912;2023-07-29T15:26:21;21.20;99.90
18597;DHT22;9428;50.950;6.912;2023-07-29T15:29:09;21.30;99.90
18597;DHT22;9428;50.950;6.912;2023-07-29T15:31:56;21.50;99.90
18597;DHT22;9428;50.950;6.912;2023-07-29T15:34:43;21.40;99.90
18597;DHT22;9428;50.950;6.912;2023-07-29T15:37:30;21.20;99.90
18597;DHT22;9428;50.950;6.912;2023-07-29T15:40:17;21.10;99.90
18597;DHT22;9428;50.950;6.912;2023-07-29T15:43:06;21.20;99.90
18597;DHT22;9428;50.950;6.912;2023-07-29T15:45:53;21.30;99.90
18597;DHT22;9428;50.950;6.912;2023-07-29T15:48:40;21.20;99.90
18597;DHT22;9428;50.950;6.912;2023-07-29T15:51:28;21.20;99.90
18597;DHT22;9428;50.950;6.912;2023-07-29T15:54:15;21.10;99.90
18597;DHT22;9428;50.950;6.912;2023-07-29T15:57:02;21.30;99.90
18597;DHT22;9428;50.950;6.912;2023-07-29T15:59:51;21.40;99.90
18597;DHT22;9428;50.950;6.912;2023-07-29T16:02:38;21.30;99.90
18597;DHT22;9428;50.950;6.912;2023-07-29T16:05:26;21.30;99.90
18597;DHT22;9428;50.950;6.912;2023-07-29T16:08:13;21.30;99.90
18597;DHT22;9428;50.950;6.912;2023-07-29T16:11:00;21.30;99.90
18597;DHT22;9428;50.950;6.912;2023-07-29T16:13:47;21.20;99.90
18597;DHT22;9428;50.950;6.912;2023-07-29T16:16:36;21.20;99.90
18597;DHT22;9428;50.950;6.912;2023-07-29T16:19:24;21.20;99.90
18597;DHT22;9428;50.950;6.912;2023-07-29T16:22:13;21.20;99.90
18597;DHT22;9428;50.950;6.912;2023-07-29T16:25:03;21.20;99.90
18597;DHT22;9428;50.950;6.912;2023-07-29T16:27:52;21.20;99.90
18597;DHT22;9428;50.950;6.912;2023-07-29T16:30:41;21.30;99.90
18597;DHT22;9428;50.950;6.912;2023-07-29T16:33:31;21.40;99.90
18597;DHT22;9428;50.950;6.912;2023-07-29T16:36:18;21.40;99.90
18597;DHT22;9428;50.950;6.912;2023-07-29T16:39:05;21.60;99.90
18597;DHT22;9428;50.950;6.912;2023-07-29T16:41:53;21.70;99.90
18597;DHT22;9428;50.950;6.912;2023-07-29T16:44:40;21.60;99.90
18597;DHT22;9428;50.950;6.912;2023-07-29T16:47:27;21.40;99.90
18597;DHT22;9428;50.950;6.912;2023-07-29T16:50:16;21.40;99.90
18597;DHT22;9428;50.950;6.912;2023-07-29T16:53:03;21.40;99.90
18597;DHT22;9428;50.950;6.912;2023-07-29T16:55:51;21.30;99.90
18597;DHT22;9428;50.950;6.912;2023-07-29T16:58:38;21.40;99.90
18597;DHT22;9428;50.950;6.912;2023-07-29T17:01:25;21.30;99.90
18597;DHT22;9428;50.950;6.912;2023-07-29T17:04:12;21.40;99.90
18597;DHT22;9428;50.950;6.912;2023-07-29T17:07:01;21.40;99.90
18597;DHT22;9428;50.950;6.912;2023-07-29T17:09:48;21.30;99.90
18597;DHT22;9428;50.950;6.912;2023-07-29T17:12:35;22.40;99.90
18597;DHT22;9428;50.950;6.912;2023-07-29T17:15:22;21.50;99.90
18597;DHT22;9428;50.950;6.912;2023-07-29T17:18:10;21.60;99.90
18597;DHT22;9428;50.950;6.912;2023-07-29T17:20:57;21.60;99.90
18597;DHT22;9428;50.950;6.912;2023-07-29T17:23:46;21.70;99.90
18597;DHT22;9428;50.950;6.912;2023-07-29T17:26:33;21.70;99.90
18597;DHT22;9428;50.950;6.912;2023-07-29T17:29:20;21.60;99.90
18597;DHT22;9428;50.950;6.912;2023-07-29T17:32:08;21.60;99.90
18597;DHT22;9428;50.950;6.912;2023-07-29T17:34:55;21.50;99.90
18597;DHT22;9428;50.950;6.912;2023-07-29T17:37:42;21.50;99.90
18597;DHT22;9428;50.950;6.912;2023-07-29T17:40:31;21.30;99.90
18597;DHT22;9428;50.950;6.912;2023-07-29T17:43:18;21.20;99.90
18597;DHT22;9428;50.950;6.912;2023-07-29T17:46:05;21.20;99.90
18597;DHT22;9428;50.950;6.912;2023-07-29T17:48:53;21.10;99.90
18597;DHT22;9428;50.950;6.912;2023-07-29T17:51:40;21.00;99.90
18597;DHT22;9428;50.950;6.912;2023-07-29T17:54:27;21.00;99.90
18597;DHT22;9428;50.950;6.912;2023-07-29T17:57:16;21.00;99.90